createdAt,value
2022-11-07T00:02:01.187Z,1.30
2022-11-07T00:07:05.819Z,1.30
2022-11-07T00:12:09.439Z,1.30
2022-11-07T00:17:12.828Z,1.30
2022-11-07T00:22:16.441Z,1.30
2022-11-07T00:27:19.893Z,1.30
2022-11-07T00:32:23.561Z,1.40
2022-11-07T00:37:27.165Z,1.50
2022-11-07T00:42:30.799Z,1.50
2022-11-07T00:47:34.107Z,1.50
2022-11-07T00:52:37.626Z,1.50
2022-11-07T00:57:41.150Z,1.50
2022-11-07T01:02:44.896Z,1.40
2022-11-07T01:07:48.362Z,1.40
2022-11-07T01:12:52.431Z,1.50
2022-11-07T01:17:55.891Z,1.60
2022-11-07T01:22:59.558Z,1.60
2022-11-07T01:28:02.948Z,1.70
2022-11-07T01:33:06.606Z,1.70
2022-11-07T01:38:10.360Z,1.80
2022-11-07T01:43:14.081Z,1.80
2022-11-07T01:48:17.477Z,1.90
2022-11-07T01:53:20.823Z,1.90
2022-11-07T01:58:24.282Z,1.90
2022-11-07T02:03:27.428Z,1.90
2022-11-07T02:08:33.028Z,1.90
2022-11-07T02:13:39.009Z,1.80
2022-11-07T02:18:45.236Z,1.80
2022-11-07T02:24:01.987Z,1.80
2022-11-07T02:29:09.691Z,1.80
2022-11-07T02:34:13.097Z,1.80
2022-11-07T02:39:16.624Z,2.00
2022-11-07T02:44:20.627Z,1.90
2022-11-07T02:49:24.087Z,1.80
2022-11-07T02:54:27.488Z,1.70
2022-11-07T02:59:31.117Z,1.70
2022-11-07T03:04:34.459Z,1.60
2022-11-07T03:09:37.886Z,1.60
2022-11-07T03:14:41.335Z,1.60
2022-11-07T03:19:44.772Z,1.60
2022-11-07T03:24:48.099Z,1.60
2022-11-07T03:29:51.547Z,1.60
2022-11-07T03:34:54.641Z,1.50
2022-11-07T03:39:57.959Z,1.50
2022-11-07T03:45:01.339Z,1.50
2022-11-07T03:50:05.479Z,1.40
2022-11-07T03:55:09.524Z,1.30
2022-11-07T04:00:14.034Z,1.30
2022-11-07T04:05:17.501Z,1.30
2022-11-07T04:10:20.858Z,1.30
2022-11-07T04:15:42.631Z,1.40
2022-11-07T04:20:46.159Z,1.40
2022-11-07T04:26:09.368Z,1.50
2022-11-07T04:31:12.651Z,1.50
2022-11-07T04:36:16.239Z,1.60
2022-11-07T04:41:22.128Z,1.60
2022-11-07T04:46:25.568Z,1.60
2022-11-07T04:51:28.938Z,1.60
2022-11-07T04:56:34.553Z,1.70
2022-11-07T05:01:38.232Z,1.70
2022-11-07T05:06:42.485Z,1.70
2022-11-07T05:11:47.385Z,1.70
2022-11-07T05:16:51.859Z,1.70
2022-11-07T05:22:13.811Z,1.90
2022-11-07T05:27:21.560Z,2.00
2022-11-07T05:32:25.040Z,2.10
2022-11-07T05:37:28.467Z,2.20
2022-11-07T05:42:31.953Z,2.50
2022-11-07T05:47:35.333Z,2.70
2022-11-07T05:52:38.990Z,2.90
2022-11-07T05:57:42.176Z,3.00
2022-11-07T06:02:46.738Z,3.10
2022-11-07T06:07:50.235Z,3.20
2022-11-07T06:13:01.527Z,3.20
2022-11-07T06:18:07.830Z,3.30
2022-11-07T06:23:12.627Z,3.30
2022-11-07T06:28:16.245Z,3.40
2022-11-07T06:33:20.672Z,3.50
2022-11-07T06:38:25.475Z,3.50
2022-11-07T06:43:32.801Z,3.60
2022-11-07T06:48:37.005Z,3.60
2022-11-07T06:53:40.165Z,3.70
2022-11-07T06:58:43.866Z,3.70
2022-11-07T07:03:47.455Z,3.70
2022-11-07T07:08:51.338Z,3.80
2022-11-07T07:14:01.940Z,3.90
2022-11-07T07:19:06.137Z,4.00
2022-11-07T07:24:09.696Z,4.10
2022-11-07T07:29:13.030Z,4.20
2022-11-07T07:34:16.516Z,4.30
2022-11-07T07:39:19.659Z,4.40
2022-11-07T07:44:22.994Z,4.50
2022-11-07T07:49:26.434Z,4.60
2022-11-07T07:54:29.507Z,4.80
2022-11-07T07:59:33.285Z,4.90
2022-11-07T08:04:37.007Z,5.00
2022-11-07T08:09:40.500Z,5.10
2022-11-07T08:14:43.616Z,5.20
2022-11-07T08:19:47.507Z,5.30
2022-11-07T08:24:50.899Z,5.50
2022-11-07T08:29:55.393Z,5.60
2022-11-07T08:34:58.807Z,5.80
2022-11-07T08:40:02.204Z,5.90
2022-11-07T08:45:05.857Z,6.00
2022-11-07T08:50:09.185Z,6.20
2022-11-07T08:55:12.734Z,6.60
2022-11-07T09:00:16.253Z,6.70
2022-11-07T09:05:20.064Z,6.90
2022-11-07T09:10:24.049Z,6.90
2022-11-07T09:15:27.538Z,6.90
2022-11-07T09:20:30.882Z,7.10
2022-11-07T09:25:37.358Z,7.30
2022-11-07T09:30:40.680Z,7.60
2022-11-07T09:35:43.717Z,7.80
2022-11-07T09:41:17.899Z,8.10
2022-11-07T09:46:36.251Z,8.40
2022-11-07T09:51:44.675Z,8.70
2022-11-07T09:56:47.906Z,9.00
2022-11-07T10:01:51.576Z,9.30
2022-11-07T10:07:26.418Z,9.40
2022-11-07T10:12:51.455Z,9.60
2022-11-07T10:18:06.390Z,9.80
2022-11-07T10:23:28.407Z,10.00
2022-11-07T10:28:32.757Z,10.20
2022-11-07T10:34:02.265Z,10.30
2022-11-07T10:39:16.647Z,10.40
2022-11-07T10:44:28.061Z,10.70
2022-11-07T10:49:33.564Z,10.80
2022-11-07T10:54:37.186Z,10.90
2022-11-07T10:59:45.502Z,11.00
2022-11-07T11:04:54.744Z,10.90
2022-11-07T11:09:59.334Z,10.80
2022-11-07T11:15:12.786Z,10.80
2022-11-07T11:20:34.167Z,10.70
2022-11-07T11:25:46.769Z,10.50
2022-11-07T11:31:19.037Z,10.50
2022-11-07T11:36:35.847Z,10.40
2022-11-07T11:41:57.406Z,10.40
2022-11-07T11:47:05.958Z,10.30
2022-11-07T11:52:30.338Z,10.30
2022-11-07T11:57:42.107Z,10.20
2022-11-07T12:03:09.917Z,10.30
2022-11-07T12:08:54.302Z,10.20
2022-11-07T12:14:31.058Z,10.20
2022-11-07T12:19:59.425Z,10.20
2022-11-07T12:25:08.566Z,10.20
2022-11-07T12:30:33.501Z,10.20
2022-11-07T12:36:10.981Z,10.20
2022-11-07T12:41:35.145Z,10.20
2022-11-07T12:46:54.807Z,10.20
2022-11-07T12:52:35.566Z,10.20
2022-11-07T12:57:40.094Z,10.20
2022-11-07T13:03:20.686Z,10.30
2022-11-07T13:08:46.521Z,10.30
2022-11-07T13:14:40.428Z,10.30
2022-11-07T13:20:04.827Z,10.30
2022-11-07T13:25:17.606Z,10.40
2022-11-07T13:30:23.163Z,10.40
2022-11-07T13:35:38.867Z,10.40
2022-11-07T13:40:42.158Z,10.40
2022-11-07T13:46:04.065Z,10.40
2022-11-07T13:51:17.978Z,10.30
2022-11-07T13:56:42.444Z,10.40
2022-11-07T14:01:46.663Z,10.90
2022-11-07T14:06:51.787Z,11.00
2022-11-07T14:11:55.325Z,10.80
2022-11-07T14:17:00.763Z,10.60
2022-11-07T14:22:04.273Z,10.40
2022-11-07T14:27:14.553Z,10.20
2022-11-07T14:32:18.656Z,10.00
2022-11-07T14:37:25.930Z,9.90
2022-11-07T14:42:30.098Z,9.80
2022-11-07T14:47:35.301Z,9.60
2022-11-07T14:53:09.936Z,9.60
2022-11-07T14:58:14.170Z,9.50
2022-11-07T15:03:22.599Z,9.30
2022-11-07T15:08:38.176Z,9.20
2022-11-07T15:13:42.639Z,9.10
2022-11-07T15:18:48.083Z,9.00
2022-11-07T15:23:54.457Z,8.90
2022-11-07T15:29:15.750Z,8.80
2022-11-07T15:34:33.789Z,8.70
2022-11-07T15:39:43.538Z,8.60
2022-11-07T15:44:46.886Z,8.50
2022-11-07T15:49:50.394Z,8.50
2022-11-07T15:54:53.661Z,8.40
2022-11-07T15:59:57.062Z,8.40
2022-11-07T16:05:00.685Z,8.30
2022-11-07T16:10:16.596Z,8.30
2022-11-07T16:15:23.630Z,8.30
2022-11-07T16:20:26.915Z,8.30
2022-11-07T16:25:31.664Z,8.30
2022-11-07T16:30:34.878Z,8.30
2022-11-07T16:35:38.806Z,8.30
2022-11-07T16:40:43.156Z,8.40
2022-11-07T16:45:58.687Z,8.30
2022-11-07T16:51:03.987Z,8.30
2022-11-07T16:56:10.049Z,8.30
2022-11-07T17:01:15.443Z,8.30
2022-11-07T17:06:31.606Z,8.30
2022-11-07T17:11:35.430Z,8.30
2022-11-07T17:16:41.058Z,8.30
2022-11-07T17:21:49.227Z,8.30
2022-11-07T17:26:53.516Z,8.30
2022-11-07T17:32:00.167Z,8.20
2022-11-07T17:37:05.937Z,8.20
2022-11-07T17:42:09.928Z,8.20
2022-11-07T17:47:31.573Z,8.20
2022-11-07T17:52:37.407Z,8.30
2022-11-07T17:57:44.008Z,8.30
2022-11-07T18:02:53.339Z,8.30
2022-11-07T18:07:57.405Z,8.30
2022-11-07T18:13:01.440Z,8.40
2022-11-07T18:18:10.755Z,8.40
2022-11-07T18:23:15.758Z,8.40
2022-11-07T18:28:21.491Z,8.50
2022-11-07T18:33:27.889Z,8.50
2022-11-07T18:38:34.050Z,8.50
2022-11-07T18:43:41.463Z,8.60
2022-11-07T18:48:47.378Z,8.60
2022-11-07T18:53:53.826Z,8.60
2022-11-07T18:58:58.767Z,8.70
2022-11-07T19:04:06.609Z,8.70
2022-11-07T19:09:12.996Z,8.70
2022-11-07T19:14:18.506Z,8.60
2022-11-07T19:19:26.156Z,8.60
2022-11-07T19:24:30.946Z,8.50
2022-11-07T19:29:35.622Z,8.50
2022-11-07T19:34:41.833Z,8.40
2022-11-07T19:39:47.255Z,8.30
2022-11-07T19:44:56.498Z,8.30
2022-11-07T19:50:01.997Z,8.30
2022-11-07T19:55:07.097Z,8.20
2022-11-07T20:00:13.389Z,8.20
2022-11-07T20:05:25.071Z,8.20
2022-11-07T20:10:30.375Z,8.20
2022-11-07T20:15:35.182Z,8.20
2022-11-07T20:20:41.126Z,8.30
2022-11-07T20:25:45.297Z,8.30
2022-11-07T20:30:54.937Z,8.30
2022-11-07T20:36:04.830Z,8.30
2022-11-07T20:41:09.426Z,8.30
2022-11-07T20:46:16.625Z,8.30
2022-11-07T20:51:25.478Z,8.30
2022-11-07T20:56:31.736Z,8.30
2022-11-07T21:01:37.671Z,8.30
2022-11-07T21:06:42.495Z,8.30
2022-11-07T21:11:46.354Z,8.40
2022-11-07T21:16:49.922Z,8.40
2022-11-07T21:21:53.727Z,8.40
2022-11-07T21:26:58.538Z,8.40
2022-11-07T21:32:02.970Z,8.40
2022-11-07T21:37:10.019Z,8.50
2022-11-07T21:42:16.156Z,8.50
2022-11-07T21:47:19.589Z,8.50
2022-11-07T21:52:23.195Z,8.60
2022-11-07T21:57:26.887Z,8.60
2022-11-07T22:02:30.896Z,8.60
2022-11-07T22:07:37.299Z,8.70
2022-11-07T22:12:40.667Z,8.70
2022-11-07T22:17:44.045Z,8.90
2022-11-07T22:22:47.099Z,8.90
2022-11-07T22:27:51.779Z,8.90
2022-11-07T22:32:54.752Z,8.90
2022-11-07T22:37:58.329Z,8.90
2022-11-07T22:43:01.667Z,9.00
2022-11-07T22:48:05.374Z,9.00
2022-11-07T22:53:08.749Z,9.00
2022-11-07T22:58:12.165Z,9.00
2022-11-07T23:03:15.263Z,9.10
2022-11-07T23:08:19.116Z,9.10
2022-11-07T23:13:22.884Z,9.20
2022-11-07T23:18:26.258Z,9.20
2022-11-07T23:23:29.731Z,9.20
2022-11-07T23:28:33.197Z,9.20
2022-11-07T23:33:37.847Z,9.00
2022-11-07T23:38:42.601Z,8.90
2022-11-07T23:43:49.872Z,8.80
2022-11-07T23:49:14.936Z,8.70
2022-11-07T23:54:36.957Z,8.50
2022-11-07T23:59:59.211Z,8.50
